Time;durP1;ratioP1;P1;durP2;ratioP2;P2;SDS_P1;SDS_P2;PMS_P1;PMS_P2;Temp;Humidity;BMP_temperature;BMP_pressure;BME280_temperature;BME280_humidity;BME280_pressure;Samples;Min_cycle;Max_cycle;Signal;HPM_P1;HPM_P2
2022/11/16 00:01:41;;;;;;;15.52;11.23;;;;;;;;;;5012580;28;20050;-68
2022/11/16 00:04:08;;;;;;;16.50;10.80;;;;;;;;;;5012637;28;20496;-68
2022/11/16 00:06:34;;;;;;;18.33;11.88;;;;;;;;;;4995055;28;20420;-68
2022/11/16 00:12:01;;;;;;;18.65;11.63;;;;;;;;;;5012966;28;20065;-67
2022/11/16 00:14:30;;;;;;;18.48;11.95;;;;;;;;;;5013509;28;20049;-70
2022/11/16 00:16:57;;;;;;;18.45;11.07;;;;;;;;;;5012998;28;20104;-68
2022/11/16 00:19:24;;;;;;;21.98;11.75;;;;;;;;;;5012109;28;20104;-68
2022/11/16 00:21:51;;;;;;;18.67;11.85;;;;;;;;;;5012153;28;20049;-68
2022/11/16 00:24:19;;;;;;;18.92;13.23;;;;;;;;;;5011500;28;20054;-68
2022/11/16 00:26:46;;;;;;;18.60;12.45;;;;;;;;;;5012407;28;20057;-68
2022/11/16 00:29:22;;;;;;;17.92;11.18;;;;;;;;;;5010289;28;20129;-68
2022/11/16 00:31:49;;;;;;;15.93;11.07;;;;;;;;;;5012063;28;20062;-68
2022/11/16 00:34:17;;;;;;;14.82;10.60;;;;;;;;;;5012334;28;20100;-69
2022/11/16 00:36:43;;;;;;;13.80;10.55;;;;;;;;;;5012040;28;20050;-68
2022/11/16 00:39:12;;;;;;;16.27;9.55;;;;;;;;;;5011407;28;20100;-68
2022/11/16 00:41:39;;;;;;;15.48;8.82;;;;;;;;;;5012306;28;20050;-68
2022/11/16 00:44:05;;;;;;;15.90;8.68;;;;;;;;;;5012187;28;20505;-68
2022/11/16 00:46:32;;;;;;;14.30;9.23;;;;;;;;;;5012285;28;20104;-68
2022/11/16 00:48:59;;;;;;;13.57;9.00;;;;;;;;;;5011480;28;20057;-68
2022/11/16 00:51:25;;;;;;;11.57;7.63;;;;;;;;;;5012041;28;20085;-68
2022/11/16 00:53:52;;;;;;;11.68;7.15;;;;;;;;;;5012020;28;20049;-68
2022/11/16 00:56:18;;;;;;;10.82;7.40;;;;;;;;;;5011915;28;20586;-69
2022/11/16 00:58:45;;;;;;;10.32;7.03;;;;;;;;;;5011119;28;20054;-68
2022/11/16 01:01:12;;;;;;;8.85;6.88;;;;;;;;;;5012059;28;20105;-68
2022/11/16 01:03:39;;;;;;;9.57;6.97;;;;;;;;;;5011866;28;20057;-68
2022/11/16 01:06:08;;;;;;;10.75;7.30;;;;;;;;;;5011956;28;20050;-68
2022/11/16 01:08:36;;;;;;;12.35;8.23;;;;;;;;;;5011175;28;20052;-67
2022/11/16 01:13:49;;;;;;;14.10;8.45;;;;;;;;;;5012032;28;20049;-68
2022/11/16 01:16:17;;;;;;;12.20;7.88;;;;;;;;;;5011726;28;20050;-67
2022/11/16 01:18:51;;;;;;;11.45;8.30;;;;;;;;;;5011139;28;20070;-68
2022/11/16 01:21:18;;;;;;;12.70;8.65;;;;;;;;;;5011633;28;20049;-68
2022/11/16 01:23:45;;;;;;;13.90;8.15;;;;;;;;;;5011545;28;20056;-68
2022/11/16 01:26:12;;;;;;;14.68;8.02;;;;;;;;;;5011587;28;20452;-67
2022/11/16 01:28:39;;;;;;;11.10;9.05;;;;;;;;;;5011142;28;20058;-68
2022/11/16 01:31:05;;;;;;;12.65;8.40;;;;;;;;;;5011639;28;20406;-68
2022/11/16 01:33:32;;;;;;;12.85;8.30;;;;;;;;;;5011622;28;20104;-68
2022/11/16 01:35:59;;;;;;;10.57;7.65;;;;;;;;;;5012307;28;20045;-68
2022/11/16 01:38:25;;;;;;;11.00;7.35;;;;;;;;;;5014502;28;20049;-68
2022/11/16 01:40:55;;;;;;;12.88;6.88;;;;;;;;;;5015071;28;20049;-67
2022/11/16 01:43:23;;;;;;;8.77;6.93;;;;;;;;;;5015028;28;20062;-68
2022/11/16 01:45:50;;;;;;;12.27;6.85;;;;;;;;;;5015110;28;20053;-68
2022/11/16 01:48:21;;;;;;;9.10;7.07;;;;;;;;;;5014490;28;20054;-68
2022/11/16 01:50:47;;;;;;;8.93;6.45;;;;;;;;;;4997646;28;20501;-67
2022/11/16 01:53:14;;;;;;;10.85;6.35;;;;;;;;;;5014819;28;20496;-68
2022/11/16 01:55:41;;;;;;;8.13;6.47;;;;;;;;;;5013491;28;20100;-67
2022/11/16 01:58:09;;;;;;;8.13;6.25;;;;;;;;;;4996883;28;20057;-67
2022/11/16 02:00:35;;;;;;;10.73;6.20;;;;;;;;;;4997304;28;20050;-68
2022/11/16 02:03:02;;;;;;;9.70;6.18;;;;;;;;;;5014778;28;20053;-68
2022/11/16 02:05:33;;;;;;;6.97;5.53;;;;;;;;;;5014557;28;20046;-68
2022/11/16 02:11:21;;;;;;;6.45;5.63;;;;;;;;;;5014435;28;20100;-68
2022/11/16 02:14:26;;;;;;;12.85;6.57;;;;;;;;;;5029037;28;20053;-67
2022/11/16 02:17:34;;;;;;;9.73;6.57;;;;;;;;;;5027543;28;20050;-68
2022/11/16 02:20:32;;;;;;;7.15;5.38;;;;;;;;;;5022878;28;20046;-68
2022/11/16 02:23:17;;;;;;;9.98;5.45;;;;;;;;;;5028475;28;20084;-68
2022/11/16 02:26:08;;;;;;;9.48;6.20;;;;;;;;;;5014202;28;20076;-68
2022/11/16 02:28:51;;;;;;;8.02;5.60;;;;;;;;;;5013814;28;20053;-67
2022/11/16 02:31:22;;;;;;;10.50;5.80;;;;;;;;;;5013142;28;20505;-67
2022/11/16 02:33:48;;;;;;;8.05;5.78;;;;;;;;;;4997269;28;20054;-68
2022/11/16 02:36:17;;;;;;;7.35;6.00;;;;;;;;;;5013036;28;20050;-68
2022/11/16 02:38:48;;;;;;;7.15;5.88;;;;;;;;;;5012011;28;20057;-68
2022/11/16 02:41:17;;;;;;;7.65;6.57;;;;;;;;;;5012658;28;20045;-67
2022/11/16 02:43:46;;;;;;;8.27;6.70;;;;;;;;;;5027304;28;20100;-67
2022/11/16 02:46:19;;;;;;;6.43;5.82;;;;;;;;;;5028944;28;20054;-68
2022/11/16 02:48:48;;;;;;;9.07;7.32;;;;;;;;;;4995025;28;20061;-67
2022/11/16 02:51:15;;;;;;;10.38;7.07;;;;;;;;;;5012337;28;20072;-68
2022/11/16 02:54:11;;;;;;;9.02;7.15;;;;;;;;;;4993419;28;20046;-68
2022/11/16 02:56:40;;;;;;;9.27;6.88;;;;;;;;;;4993053;28;20057;-67
2022/11/16 02:59:07;;;;;;;12.45;7.63;;;;;;;;;;4992544;28;20053;-67
2022/11/16 03:01:35;;;;;;;10.70;7.75;;;;;;;;;;4993958;28;20082;-67
2022/11/16 03:04:07;;;;;;;9.50;7.43;;;;;;;;;;4993120;28;20050;-68
2022/11/16 03:06:35;;;;;;;10.43;7.00;;;;;;;;;;4977379;28;20108;-68
2022/11/16 03:09:07;;;;;;;8.52;7.20;;;;;;;;;;4992337;28;20058;-68
2022/11/16 03:14:23;;;;;;;7.82;6.43;;;;;;;;;;5012644;28;20085;-68
2022/11/16 03:16:57;;;;;;;9.10;6.63;;;;;;;;;;5012404;28;20088;-68
2022/11/16 03:19:41;;;;;;;10.20;6.75;;;;;;;;;;5012671;28;20046;-68
2022/11/16 03:22:10;;;;;;;7.82;6.60;;;;;;;;;;4995601;28;20050;-68
2022/11/16 03:24:37;;;;;;;7.20;6.05;;;;;;;;;;5012051;28;20054;-68
2022/11/16 03:27:19;;;;;;;6.35;5.55;;;;;;;;;;5012714;28;20069;-68
2022/11/16 03:30:21;;;;;;;7.93;5.93;;;;;;;;;;5012961;28;20467;-68
2022/11/16 03:33:13;;;;;;;6.78;5.82;;;;;;;;;;4985993;28;20493;-68
2022/11/16 03:35:53;;;;;;;7.72;5.07;;;;;;;;;;5008666;28;20050;-68
2022/11/16 03:38:20;;;;;;;8.60;5.88;;;;;;;;;;5008699;28;20077;-68
2022/11/16 03:40:46;;;;;;;7.05;5.80;;;;;;;;;;5031343;28;20097;-68
2022/11/16 03:43:13;;;;;;;7.97;5.63;;;;;;;;;;5031191;28;20053;-67
2022/11/16 03:45:40;;;;;;;6.85;5.00;;;;;;;;;;5015029;28;20503;-68
2022/11/16 03:48:06;;;;;;;7.68;5.03;;;;;;;;;;5031020;28;20057;-68
2022/11/16 03:50:33;;;;;;;5.72;4.38;;;;;;;;;;5031116;28;20125;-68
2022/11/16 03:53:00;;;;;;;7.72;4.30;;;;;;;;;;5029825;28;20053;-68
2022/11/16 03:55:26;;;;;;;6.53;3.58;;;;;;;;;;5016259;28;20394;-68
2022/11/16 03:57:53;;;;;;;4.50;3.13;;;;;;;;;;5012036;28;20398;-67
2022/11/16 04:00:19;;;;;;;5.22;3.45;;;;;;;;;;5012268;28;20077;-68
2022/11/16 04:02:46;;;;;;;3.75;3.17;;;;;;;;;;5012483;28;20049;-68
2022/11/16 04:24:39;;;;;;;4.15;3.40;;;;;;;;;;5012255;28;20115;-68
2022/11/16 04:29:54;;;;;;;5.97;4.13;;;;;;;;;;5015860;28;20076;-68
2022/11/16 04:37:52;;;;;;;9.77;7.00;;;;;;;;;;5041585;28;20041;-67
2022/11/16 04:40:22;;;;;;;11.98;7.75;;;;;;;;;;5048335;28;20103;-70
2022/11/16 04:42:56;;;;;;;10.45;7.70;;;;;;;;;;5033714;28;20087;-68
2022/11/16 04:48:08;;;;;;;10.25;8.32;;;;;;;;;;5036661;28;20061;-68
2022/11/16 04:50:35;;;;;;;10.55;8.05;;;;;;;;;;5033279;28;20049;-68
2022/11/16 04:53:02;;;;;;;12.25;7.43;;;;;;;;;;5034146;28;20049;-68
2022/11/16 04:55:29;;;;;;;10.82;8.18;;;;;;;;;;5032829;28;20469;-67
2022/11/16 04:57:55;;;;;;;11.38;8.40;;;;;;;;;;5031438;28;20400;-68
2022/11/16 05:00:22;;;;;;;10.13;7.63;;;;;;;;;;5031977;28;20099;-68
2022/11/16 05:02:49;;;;;;;9.43;7.25;;;;;;;;;;5032042;28;20155;-68
2022/11/16 05:05:16;;;;;;;11.07;7.75;;;;;;;;;;5031952;28;20409;-68
2022/11/16 05:07:43;;;;;;;11.45;7.38;;;;;;;;;;5030829;28;20054;-68
2022/11/16 05:10:10;;;;;;;9.77;6.30;;;;;;;;;;5031115;28;20045;-69
2022/11/16 05:12:37;;;;;;;9.93;8.00;;;;;;;;;;5054980;23;20099;-67
2022/11/16 05:15:04;;;;;;;11.45;7.15;;;;;;;;;;5035254;28;20111;-67
2022/11/16 05:17:31;;;;;;;10.27;7.32;;;;;;;;;;5035496;28;20110;-67
2022/11/16 05:22:43;;;;;;;9.15;7.57;;;;;;;;;;5023731;28;20504;-66
2022/11/16 05:25:11;;;;;;;8.93;6.75;;;;;;;;;;5017273;28;20103;-67
2022/11/16 05:27:37;;;;;;;9.95;8.18;;;;;;;;;;5033740;28;20053;-67
2022/11/16 05:30:05;;;;;;;12.80;8.35;;;;;;;;;;5034501;28;20495;-67
2022/11/16 05:32:31;;;;;;;12.20;8.98;;;;;;;;;;5033869;28;20081;-66
2022/11/16 05:34:58;;;;;;;12.57;9.43;;;;;;;;;;5034994;28;20057;-67
2022/11/16 05:37:25;;;;;;;12.50;10.40;;;;;;;;;;5034865;28;20107;-67
2022/11/16 05:39:53;;;;;;;14.50;9.18;;;;;;;;;;5025516;28;20052;-66
2022/11/16 05:42:20;;;;;;;12.18;9.63;;;;;;;;;;5015135;28;20049;-67
2022/11/16 05:44:47;;;;;;;13.70;9.43;;;;;;;;;;5014979;28;20053;-66
2022/11/16 05:47:13;;;;;;;13.80;10.20;;;;;;;;;;5014853;28;20508;-67
2022/11/16 05:49:40;;;;;;;15.30;10.35;;;;;;;;;;5014442;28;20108;-67
2022/11/16 05:52:07;;;;;;;12.70;8.90;;;;;;;;;;5014274;28;20128;-67
2022/11/16 05:54:33;;;;;;;16.55;9.50;;;;;;;;;;5013219;28;20050;-67
2022/11/16 05:57:00;;;;;;;13.93;9.38;;;;;;;;;;5012862;28;20045;-66
2022/11/16 05:59:28;;;;;;;15.25;10.27;;;;;;;;;;5014406;28;20456;-67
2022/11/16 06:01:55;;;;;;;19.77;13.93;;;;;;;;;;5014657;28;20444;-66
2022/11/16 06:04:22;;;;;;;21.92;14.55;;;;;;;;;;5014816;28;20057;-66
2022/11/16 06:06:50;;;;;;;20.90;14.02;;;;;;;;;;5016366;28;20492;-65
2022/11/16 06:09:16;;;;;;;19.27;12.82;;;;;;;;;;5033793;28;20184;-66
2022/11/16 06:11:43;;;;;;;14.80;11.40;;;;;;;;;;5034416;28;20060;-66
2022/11/16 06:14:10;;;;;;;14.80;10.00;;;;;;;;;;5032702;28;20099;-66
2022/11/16 06:16:37;;;;;;;12.65;9.07;;;;;;;;;;5014490;28;20472;-66
2022/11/16 06:19:03;;;;;;;11.65;8.35;;;;;;;;;;5013739;28;20100;-66
2022/11/16 06:21:30;;;;;;;13.20;7.95;;;;;;;;;;5014097;28;20046;-66
2022/11/16 06:23:57;;;;;;;9.27;7.72;;;;;;;;;;5014202;28;20104;-66
2022/11/16 06:26:23;;;;;;;10.70;6.70;;;;;;;;;;5014337;28;20054;-66
2022/11/16 06:28:50;;;;;;;9.63;6.97;;;;;;;;;;5013714;28;20128;-66
2022/11/16 06:31:16;;;;;;;8.73;6.50;;;;;;;;;;5014189;28;20551;-66
2022/11/16 06:33:43;;;;;;;9.23;7.35;;;;;;;;;;5014192;28;20471;-66
2022/11/16 06:36:10;;;;;;;9.48;6.65;;;;;;;;;;5013972;28;20054;-66
2022/11/16 06:38:37;;;;;;;10.27;7.15;;;;;;;;;;5013731;28;20053;-67
2022/11/16 06:41:04;;;;;;;9.10;7.15;;;;;;;;;;5014188;28;20497;-67
2022/11/16 06:43:30;;;;;;;10.43;6.55;;;;;;;;;;5014044;28;20054;-66
2022/11/16 06:45:57;;;;;;;11.00;7.32;;;;;;;;;;5013800;28;20054;-67
2022/11/16 06:48:24;;;;;;;10.40;7.25;;;;;;;;;;5013776;28;20509;-66
2022/11/16 06:50:51;;;;;;;9.35;6.28;;;;;;;;;;5013626;28;20072;-67
2022/11/16 06:53:18;;;;;;;8.52;6.07;;;;;;;;;;5013606;28;20088;-66
2022/11/16 06:55:47;;;;;;;8.07;5.95;;;;;;;;;;5013834;28;20058;-66
2022/11/16 06:58:14;;;;;;;9.40;6.13;;;;;;;;;;5013035;28;20528;-67
2022/11/16 07:00:41;;;;;;;7.43;5.90;;;;;;;;;;5013336;28;20081;-67
2022/11/16 07:03:08;;;;;;;10.48;5.90;;;;;;;;;;5013305;28;20390;-66
2022/11/16 07:05:38;;;;;;;10.80;6.30;;;;;;;;;;5013508;28;20057;-67
2022/11/16 07:08:05;;;;;;;10.35;6.88;;;;;;;;;;5012821;28;20054;-67
2022/11/16 07:10:31;;;;;;;7.10;5.80;;;;;;;;;;5013383;28;20062;-67
2022/11/16 07:13:01;;;;;;;8.75;5.97;;;;;;;;;;5011837;28;20100;-68
2022/11/16 07:15:27;;;;;;;7.28;5.00;;;;;;;;;;5013049;28;20045;-67
2022/11/16 07:17:54;;;;;;;7.80;5.90;;;;;;;;;;5013466;28;20463;-67
2022/11/16 07:20:21;;;;;;;13.93;6.55;;;;;;;;;;5013697;28;20101;-67
2022/11/16 07:22:48;;;;;;;9.02;6.20;;;;;;;;;;5013371;28;20085;-66
2022/11/16 07:25:14;;;;;;;12.25;7.93;;;;;;;;;;5013111;28;20104;-66
2022/11/16 07:27:41;;;;;;;11.38;6.68;;;;;;;;;;5012930;28;20085;-67
2022/11/16 07:30:08;;;;;;;9.25;6.63;;;;;;;;;;5009342;28;20120;-66
2022/11/16 07:32:38;;;;;;;13.38;5.95;;;;;;;;;;5010820;28;20057;-67
2022/11/16 07:35:05;;;;;;;7.88;5.70;;;;;;;;;;5010496;28;20054;-66
2022/11/16 07:37:32;;;;;;;6.97;4.65;;;;;;;;;;5010840;28;20444;-66
2022/11/16 07:39:58;;;;;;;5.78;4.72;;;;;;;;;;5010297;28;20062;-66
2022/11/16 07:42:25;;;;;;;6.07;3.90;;;;;;;;;;5010417;28;20042;-67
2022/11/16 07:44:51;;;;;;;5.43;3.88;;;;;;;;;;5010830;28;20049;-66
2022/11/16 07:47:18;;;;;;;4.88;3.35;;;;;;;;;;5010669;28;20085;-67
2022/11/16 07:49:47;;;;;;;7.95;3.85;;;;;;;;;;5010321;28;20049;-66
2022/11/16 07:52:13;;;;;;;4.82;2.75;;;;;;;;;;5010821;28;20050;-67
2022/11/16 07:54:40;;;;;;;6.30;3.08;;;;;;;;;;5010220;28;20100;-67
2022/11/16 07:57:07;;;;;;;7.60;4.50;;;;;;;;;;5010651;28;20104;-66
2022/11/16 07:59:33;;;;;;;7.70;4.85;;;;;;;;;;5009717;28;20127;-66
2022/11/16 08:02:00;;;;;;;6.65;4.13;;;;;;;;;;5010515;28;20390;-66
2022/11/16 08:04:27;;;;;;;4.13;2.63;;;;;;;;;;5010713;28;20049;-66
2022/11/16 08:06:53;;;;;;;5.35;2.83;;;;;;;;;;5010414;28;20073;-66
2022/11/16 08:09:20;;;;;;;4.32;3.00;;;;;;;;;;5009068;28;20053;-67
2022/11/16 08:11:47;;;;;;;3.63;2.70;;;;;;;;;;5010365;28;20050;-66
2022/11/16 08:14:14;;;;;;;4.90;2.35;;;;;;;;;;5010242;28;20062;-66
2022/11/16 08:16:41;;;;;;;3.60;1.95;;;;;;;;;;5010521;28;20562;-67
2022/11/16 08:19:07;;;;;;;2.97;1.80;;;;;;;;;;5009788;28;20467;-66
2022/11/16 08:21:34;;;;;;;2.50;1.20;;;;;;;;;;5009755;28;20049;-67
2022/11/16 08:24:01;;;;;;;3.38;1.85;;;;;;;;;;5010255;28;20049;-67
2022/11/16 08:26:27;;;;;;;4.80;1.95;;;;;;;;;;5010270;28;20054;-66
2022/11/16 08:28:55;;;;;;;7.28;2.75;;;;;;;;;;5009330;28;20057;-68
2022/11/16 08:31:26;;;;;;;4.20;1.40;;;;;;;;;;5005579;28;20053;-70
2022/11/16 08:33:52;;;;;;;3.30;1.42;;;;;;;;;;5020628;28;20393;-69
2022/11/16 08:36:19;;;;;;;4.53;1.00;;;;;;;;;;5002154;28;20050;-70
2022/11/16 08:38:47;;;;;;;2.42;0.82;;;;;;;;;;4997461;28;20077;-70
2022/11/16 08:41:14;;;;;;;5.82;2.50;;;;;;;;;;4998933;28;20501;-73
2022/11/16 08:43:41;;;;;;;5.22;1.77;;;;;;;;;;4998704;28;20081;-74
2022/11/16 08:46:09;;;;;;;2.38;1.20;;;;;;;;;;4984674;28;20061;-70
2022/11/16 08:48:35;;;;;;;2.08;1.00;;;;;;;;;;5006749;28;20045;-68
2022/11/16 08:51:05;;;;;;;2.63;1.35;;;;;;;;;;5007980;28;20528;-68
2022/11/16 08:53:48;;;;;;;2.58;1.00;;;;;;;;;;5004773;28;20046;-69
2022/11/16 08:56:16;;;;;;;3.70;1.20;;;;;;;;;;5001661;28;20056;-66
2022/11/16 08:58:45;;;;;;;3.00;0.90;;;;;;;;;;5002322;28;20068;-68
2022/11/16 09:01:17;;;;;;;3.22;1.00;;;;;;;;;;5001173;28;20133;-68
2022/11/16 09:03:44;;;;;;;1.58;0.75;;;;;;;;;;5001867;28;20133;-73
2022/11/16 09:06:11;;;;;;;2.40;0.70;;;;;;;;;;4999108;28;20516;-70
2022/11/16 09:08:39;;;;;;;1.85;0.70;;;;;;;;;;5001299;28;20058;-71
2022/11/16 09:11:07;;;;;;;2.72;1.10;;;;;;;;;;5004826;28;20501;-71
2022/11/16 09:13:34;;;;;;;2.67;0.75;;;;;;;;;;5000354;28;20050;-67
2022/11/16 09:16:01;;;;;;;2.35;0.80;;;;;;;;;;5002415;28;20081;-68
2022/11/16 09:18:28;;;;;;;2.13;1.25;;;;;;;;;;5002412;28;20153;-68
2022/11/16 09:20:55;;;;;;;2.00;1.02;;;;;;;;;;5004655;28;20080;-67
2022/11/16 09:23:22;;;;;;;4.18;1.10;;;;;;;;;;5003660;28;20118;-69
2022/11/16 09:25:51;;;;;;;4.20;1.30;;;;;;;;;;5004673;28;20088;-66
2022/11/16 09:28:18;;;;;;;4.57;1.42;;;;;;;;;;5002235;28;20081;-66
2022/11/16 09:30:45;;;;;;;3.70;1.30;;;;;;;;;;5003243;28;20046;-69
2022/11/16 09:33:12;;;;;;;3.95;1.50;;;;;;;;;;4983935;28;20563;-71
2022/11/16 09:35:39;;;;;;;3.35;1.20;;;;;;;;;;5001275;28;20104;-67
2022/11/16 09:38:06;;;;;;;1.70;0.98;;;;;;;;;;5000847;28;20393;-65
2022/11/16 09:40:35;;;;;;;1.73;0.80;;;;;;;;;;5000492;28;20082;-64
2022/11/16 09:43:11;;;;;;;4.90;1.10;;;;;;;;;;5003280;28;20046;-65
2022/11/16 09:45:56;;;;;;;6.90;1.90;;;;;;;;;;5015273;28;20116;-65
2022/11/16 09:48:23;;;;;;;3.67;1.10;;;;;;;;;;4999511;28;20077;-66
2022/11/16 09:50:50;;;;;;;2.88;0.70;;;;;;;;;;4983912;28;20117;-69
2022/11/16 09:53:20;;;;;;;2.53;0.82;;;;;;;;;;4998802;28;20057;-68
2022/11/16 09:56:12;;;;;;;5.80;0.98;;;;;;;;;;5014909;28;20072;-70
2022/11/16 09:59:08;;;;;;;3.20;0.90;;;;;;;;;;4998159;28;20088;-69
2022/11/16 10:01:50;;;;;;;2.17;0.80;;;;;;;;;;5006783;28;20042;-66
2022/11/16 10:04:24;;;;;;;1.80;0.77;;;;;;;;;;5001408;28;20514;-67
2022/11/16 10:06:54;;;;;;;2.63;0.90;;;;;;;;;;4998740;28;20058;-68
2022/11/16 10:09:21;;;;;;;6.25;1.27;;;;;;;;;;5001143;28;20052;-72
2022/11/16 10:11:54;;;;;;;2.20;0.80;;;;;;;;;;4999260;28;20501;-68
2022/11/16 10:15:07;;;;;;;2.15;0.65;;;;;;;;;;4998155;28;20054;-68
2022/11/16 10:17:41;;;;;;;1.17;0.70;;;;;;;;;;4970771;28;20120;-69
2022/11/16 10:20:36;;;;;;;2.63;0.80;;;;;;;;;;5004091;28;20305;-68
2022/11/16 10:23:24;;;;;;;1.58;1.00;;;;;;;;;;5000805;28;20061;-67
2022/11/16 10:25:53;;;;;;;3.50;1.10;;;;;;;;;;5002030;28;20464;-68
2022/11/16 10:28:43;;;;;;;1.83;0.93;;;;;;;;;;5000913;28;20050;-69
2022/11/16 10:31:32;;;;;;;2.92;0.93;;;;;;;;;;4997369;28;20046;-70
2022/11/16 10:33:58;;;;;;;1.70;0.82;;;;;;;;;;4998854;28;20105;-69
2022/11/16 10:36:26;;;;;;;4.93;1.20;;;;;;;;;;5001990;28;20050;-68
2022/11/16 10:38:55;;;;;;;3.72;1.05;;;;;;;;;;4999376;28;20050;-69
2022/11/16 10:41:30;;;;;;;2.38;0.90;;;;;;;;;;4981692;28;20050;-67
2022/11/16 10:43:59;;;;;;;3.55;1.52;;;;;;;;;;5000181;28;20109;-66
2022/11/16 10:46:30;;;;;;;2.53;1.30;;;;;;;;;;4996495;28;20109;-66
2022/11/16 10:49:10;;;;;;;2.97;1.25;;;;;;;;;;4980752;28;20547;-69
2022/11/16 10:51:37;;;;;;;1.83;1.00;;;;;;;;;;4998182;28;20471;-67
2022/11/16 10:54:14;;;;;;;5.00;1.20;;;;;;;;;;4997696;28;20104;-68
2022/11/16 10:56:46;;;;;;;2.65;1.33;;;;;;;;;;4999712;28;20460;-66
2022/11/16 10:59:33;;;;;;;2.15;1.25;;;;;;;;;;4997437;28;20054;-66
2022/11/16 11:02:04;;;;;;;1.92;1.33;;;;;;;;;;4998279;28;20100;-69
2022/11/16 11:04:31;;;;;;;3.67;1.58;;;;;;;;;;4981708;28;20042;-68
2022/11/16 11:07:23;;;;;;;4.90;2.17;;;;;;;;;;4999329;28;20057;-66
2022/11/16 11:09:53;;;;;;;3.95;1.17;;;;;;;;;;4995461;28;20113;-66
2022/11/16 11:12:39;;;;;;;2.15;1.17;;;;;;;;;;5023566;23;20016;-66
2022/11/16 11:15:21;;;;;;;2.17;1.90;;;;;;;;;;4990647;28;20498;-66
2022/11/16 11:18:16;;;;;;;2.35;1.10;;;;;;;;;;4991243;28;20109;-68
2022/11/16 11:20:44;;;;;;;4.10;1.30;;;;;;;;;;4992529;28;20054;-66
2022/11/16 11:23:12;;;;;;;4.25;1.38;;;;;;;;;;4992766;28;20074;-68
2022/11/16 11:25:47;;;;;;;3.42;1.02;;;;;;;;;;4981068;28;20129;-67
2022/11/16 11:28:17;;;;;;;2.42;1.40;;;;;;;;;;4960142;28;20055;-68
2022/11/16 11:31:11;;;;;;;2.10;1.00;;;;;;;;;;4959684;28;20050;-66
2022/11/16 11:33:42;;;;;;;2.35;0.77;;;;;;;;;;4961323;28;20050;-67
2022/11/16 11:36:09;;;;;;;1.60;0.75;;;;;;;;;;4958880;28;20084;-66
2022/11/16 11:39:00;;;;;;;2.13;0.70;;;;;;;;;;4955007;28;20169;-73
2022/11/16 11:41:31;;;;;;;2.17;1.20;;;;;;;;;;4961375;28;20061;-72
2022/11/16 11:44:29;;;;;;;1.25;1.05;;;;;;;;;;4957940;28;20482;-70
2022/11/16 11:47:18;;;;;;;3.50;1.48;;;;;;;;;;4973058;28;20117;-73
2022/11/16 11:50:55;;;;;;;1.80;1.42;;;;;;;;;;4978090;28;20577;-73
2022/11/16 11:53:57;;;;;;;2.92;1.60;;;;;;;;;;4964108;28;20145;-66
2022/11/16 11:56:25;;;;;;;3.35;2.47;;;;;;;;;;4959123;28;20129;-66
2022/11/16 11:58:53;;;;;;;5.93;1.60;;;;;;;;;;4955167;28;20147;-66
2022/11/16 12:01:32;;;;;;;2.88;1.40;;;;;;;;;;4958999;28;20501;-73
2022/11/16 12:04:21;;;;;;;4.85;1.20;;;;;;;;;;4976895;28;20098;-69
2022/11/16 12:07:22;;;;;;;3.97;0.85;;;;;;;;;;4957739;28;20063;-71
2022/11/16 12:10:17;;;;;;;3.53;1.20;;;;;;;;;;4966874;28;20058;-67
2022/11/16 12:13:11;;;;;;;3.90;1.33;;;;;;;;;;4959935;28;20098;-71
2022/11/16 12:15:48;;;;;;;1.33;1.15;;;;;;;;;;4964248;28;20053;-69
2022/11/16 12:18:33;;;;;;;1.98;1.08;;;;;;;;;;4971615;28;20522;-66
2022/11/16 12:21:05;;;;;;;3.70;1.33;;;;;;;;;;4961068;28;20129;-71
2022/11/16 12:23:35;;;;;;;7.70;2.00;;;;;;;;;;5046190;23;20520;-77
2022/11/16 12:26:24;;;;;;;3.95;1.48;;;;;;;;;;5007632;28;20062;-74
2022/11/16 12:29:15;;;;;;;6.68;2.40;;;;;;;;;;4985960;28;20056;-73
2022/11/16 12:32:04;;;;;;;2.47;1.35;;;;;;;;;;4989405;28;20042;-74
2022/11/16 12:34:55;;;;;;;2.72;1.00;;;;;;;;;;4962781;28;20058;-70
2022/11/16 12:37:31;;;;;;;1.17;1.00;;;;;;;;;;4968898;28;20050;-69
2022/11/16 12:40:32;;;;;;;4.65;1.48;;;;;;;;;;4969994;28;20059;-73
2022/11/16 12:43:27;;;;;;;6.95;1.30;;;;;;;;;;4971380;28;20074;-69
2022/11/16 12:46:16;;;;;;;7.78;1.10;;;;;;;;;;4968674;28;20097;-71
2022/11/16 12:48:48;;;;;;;1.75;1.00;;;;;;;;;;4969816;28;20490;-70
2022/11/16 12:51:25;;;;;;;2.28;0.90;;;;;;;;;;4966211;28;20051;-66
2022/11/16 12:54:16;;;;;;;4.47;0.98;;;;;;;;;;4965775;28;20416;-66
2022/11/16 12:57:01;;;;;;;3.00;1.05;;;;;;;;;;4968025;28;20042;-66
2022/11/16 12:59:37;;;;;;;1.02;0.70;;;;;;;;;;4969493;28;20077;-66
2022/11/16 13:02:22;;;;;;;1.08;0.60;;;;;;;;;;4970454;28;20046;-66
2022/11/16 13:04:56;;;;;;;7.97;1.55;;;;;;;;;;4965166;28;20176;-67
2022/11/16 13:07:32;;;;;;;16.40;2.85;;;;;;;;;;4967157;28;20051;-67
2022/11/16 13:10:06;;;;;;;6.88;2.30;;;;;;;;;;4952464;28;20057;-68
2022/11/16 13:12:33;;;;;;;5.75;1.95;;;;;;;;;;4954137;28;20105;-68
2022/11/16 13:15:00;;;;;;;2.95;0.93;;;;;;;;;;4968961;28;20081;-66
2022/11/16 13:17:28;;;;;;;1.52;0.70;;;;;;;;;;4964977;28;20078;-66
2022/11/16 13:20:32;;;;;;;3.50;1.08;;;;;;;;;;4964829;28;20494;-66
2022/11/16 13:23:13;;;;;;;3.35;0.80;;;;;;;;;;4967248;28;20055;-68
2022/11/16 13:26:19;;;;;;;2.28;0.70;;;;;;;;;;4968064;28;20055;-67
2022/11/16 13:29:14;;;;;;;2.08;0.80;;;;;;;;;;4945659;28;20050;-67
2022/11/16 13:32:01;;;;;;;2.90;0.88;;;;;;;;;;4961308;28;20050;-68
2022/11/16 13:34:31;;;;;;;2.70;1.30;;;;;;;;;;4970836;28;20050;-67
2022/11/16 13:36:57;;;;;;;1.30;0.70;;;;;;;;;;4971374;28;20525;-67
2022/11/16 13:39:49;;;;;;;2.00;0.80;;;;;;;;;;4993700;28;20161;-69
2022/11/16 13:42:15;;;;;;;2.50;0.90;;;;;;;;;;4972297;28;20047;-68
2022/11/16 13:44:42;;;;;;;2.38;0.80;;;;;;;;;;4967430;28;20089;-68
2022/11/16 13:47:26;;;;;;;2.83;0.90;;;;;;;;;;4988524;28;20050;-65
2022/11/16 13:49:58;;;;;;;1.02;0.75;;;;;;;;;;4960983;28;20059;-67
2022/11/16 13:53:05;;;;;;;0.65;0.57;;;;;;;;;;4956488;28;20079;-67
2022/11/16 13:55:59;;;;;;;2.67;1.00;;;;;;;;;;4957855;28;20146;-65
2022/11/16 13:58:27;;;;;;;2.60;0.80;;;;;;;;;;4968885;28;20158;-67
2022/11/16 14:01:00;;;;;;;1.08;0.60;;;;;;;;;;4973852;28;20058;-67
2022/11/16 14:03:30;;;;;;;2.95;0.82;;;;;;;;;;4971425;28;20051;-67
2022/11/16 14:05:57;;;;;;;1.90;0.90;;;;;;;;;;4972529;28;20055;-69
2022/11/16 14:08:37;;;;;;;1.30;0.70;;;;;;;;;;4966962;28;20070;-68
2022/11/16 14:11:07;;;;;;;1.92;0.70;;;;;;;;;;4968260;28;20069;-69
2022/11/16 14:13:34;;;;;;;3.30;0.60;;;;;;;;;;4949461;28;20705;-69
2022/11/16 14:16:14;;;;;;;1.38;0.73;;;;;;;;;;4963982;28;20050;-71
2022/11/16 14:18:41;;;;;;;3.10;0.70;;;;;;;;;;4957219;28;20176;-71
2022/11/16 14:21:11;;;;;;;2.10;1.00;;;;;;;;;;4970326;28;20054;-69
2022/11/16 14:23:59;;;;;;;1.35;0.57;;;;;;;;;;4970723;28;20125;-70
2022/11/16 14:26:35;;;;;;;1.60;0.63;;;;;;;;;;4972875;28;20050;-70
2022/11/16 14:29:23;;;;;;;3.55;0.80;;;;;;;;;;4974163;28;20055;-69
2022/11/16 14:31:56;;;;;;;2.72;0.98;;;;;;;;;;4982004;28;20046;-69
2022/11/16 14:34:31;;;;;;;3.50;1.13;;;;;;;;;;4973824;28;20453;-71
2022/11/16 14:36:58;;;;;;;2.50;0.68;;;;;;;;;;4971389;28;20090;-71
2022/11/16 14:39:29;;;;;;;3.17;0.80;;;;;;;;;;4970364;28;20054;-69
2022/11/16 14:41:59;;;;;;;1.35;0.65;;;;;;;;;;4970687;28;20057;-69
2022/11/16 14:44:28;;;;;;;1.92;0.80;;;;;;;;;;4970783;28;20140;-70
2022/11/16 14:46:55;;;;;;;2.60;1.42;;;;;;;;;;4971888;28;20055;-70
2022/11/16 14:49:24;;;;;;;2.97;1.30;;;;;;;;;;4969352;28;20062;-69
2022/11/16 14:51:54;;;;;;;2.25;1.40;;;;;;;;;;4972286;28;20105;-70
2022/11/16 14:54:43;;;;;;;3.95;1.92;;;;;;;;;;4968350;28;20051;-68
2022/11/16 14:57:17;;;;;;;3.80;1.08;;;;;;;;;;4965235;28;20058;-69
2022/11/16 14:59:43;;;;;;;4.85;1.67;;;;;;;;;;4967302;28;20814;-71
2022/11/16 15:02:23;;;;;;;2.60;1.13;;;;;;;;;;4973298;28;20101;-70
2022/11/16 15:04:50;;;;;;;2.17;1.02;;;;;;;;;;4969185;28;20774;-69
2022/11/16 15:07:18;;;;;;;2.15;1.10;;;;;;;;;;4968424;28;20556;-67
2022/11/16 15:09:49;;;;;;;3.90;1.20;;;;;;;;;;4968526;28;20054;-68
2022/11/16 15:15:07;;;;;;;4.75;2.22;;;;;;;;;;4968583;28;20497;-71
2022/11/16 15:17:34;;;;;;;5.15;1.50;;;;;;;;;;4970713;28;20464;-70
2022/11/16 15:20:09;;;;;;;3.35;1.05;;;;;;;;;;4968885;28;20046;-69
2022/11/16 15:22:39;;;;;;;4.20;1.17;;;;;;;;;;4969553;28;20580;-69
2022/11/16 15:25:22;;;;;;;2.17;1.00;;;;;;;;;;4968960;28;20046;-71
2022/11/16 15:27:48;;;;;;;3.05;1.00;;;;;;;;;;4969839;28;20425;-68
2022/11/16 15:30:29;;;;;;;2.70;1.10;;;;;;;;;;4969788;28;20046;-69
2022/11/16 15:32:56;;;;;;;3.55;1.30;;;;;;;;;;4954040;28;20077;-68
2022/11/16 15:35:23;;;;;;;5.72;1.17;;;;;;;;;;4971038;28;20533;-68
2022/11/16 15:38:14;;;;;;;4.10;1.85;;;;;;;;;;4969378;28;20445;-73
2022/11/16 15:40:43;;;;;;;4.78;1.80;;;;;;;;;;4970925;28;20089;-69
2022/11/16 15:43:09;;;;;;;4.47;2.00;;;;;;;;;;4953369;28;20046;-69
2022/11/16 15:45:36;;;;;;;3.13;2.10;;;;;;;;;;4953320;28;20509;-70
2022/11/16 15:48:03;;;;;;;6.03;3.38;;;;;;;;;;4953313;28;20133;-70
2022/11/16 15:50:30;;;;;;;5.68;2.35;;;;;;;;;;4970209;28;20055;-68
2022/11/16 15:52:58;;;;;;;4.68;2.25;;;;;;;;;;4968223;28;20510;-67
2022/11/16 15:55:35;;;;;;;4.90;1.65;;;;;;;;;;4969025;28;20049;-70
2022/11/16 15:58:06;;;;;;;4.68;2.35;;;;;;;;;;4952873;28;20054;-68